sensor_id;sensor_type;location;lat;lon;timestamp;temperature;humidity
12833;DHT22;6483;51.310;4.462;2023-07-16T11:40:20;18.20;1.00
12833;DHT22;6483;51.310;4.462;2023-07-16T11:42:46;25.10;1.00
12833;DHT22;6483;51.310;4.462;2023-07-16T11:45:23;25.00;1.00
12833;DHT22;6483;51.310;4.462;2023-07-16T11:47:50;25.70;1.00
12833;DHT22;6483;51.310;4.462;2023-07-16T11:50:17;26.40;1.00
12833;DHT22;6483;51.310;4.462;2023-07-16T11:52:42;25.20;1.00
12833;DHT22;6483;51.310;4.462;2023-07-16T11:55:08;25.70;1.00
12833;DHT22;6483;51.310;4.462;2023-07-16T11:57:38;25.50;1.00
12833;DHT22;6483;51.310;4.462;2023-07-16T12:00:05;25.30;1.00
12833;DHT22;6483;51.310;4.462;2023-07-16T12:02:35;24.90;1.00
12833;DHT22;6483;51.310;4.462;2023-07-16T12:05:04;24.80;1.00
12833;DHT22;6483;51.310;4.462;2023-07-16T12:07:35;24.90;1.00
12833;DHT22;6483;51.310;4.462;2023-07-16T12:10:02;24.50;1.00
12833;DHT22;6483;51.310;4.462;2023-07-16T12:12:29;25.20;1.00
12833;DHT22;6483;51.310;4.462;2023-07-16T12:14:54;26.00;1.00
12833;DHT22;6483;51.310;4.462;2023-07-16T12:17:23;25.70;1.00
12833;DHT22;6483;51.310;4.462;2023-07-16T12:19:50;26.10;1.00
12833;DHT22;6483;51.310;4.462;2023-07-16T12:22:17;25.80;1.00
12833;DHT22;6483;51.310;4.462;2023-07-16T12:24:49;24.50;1.00
12833;DHT22;6483;51.310;4.462;2023-07-16T12:27:15;23.20;1.00
12833;DHT22;6483;51.310;4.462;2023-07-16T12:29:46;22.90;1.00
12833;DHT22;6483;51.310;4.462;2023-07-16T12:32:16;22.50;1.00
12833;DHT22;6483;51.310;4.462;2023-07-16T12:34:41;22.70;1.00
12833;DHT22;6483;51.310;4.462;2023-07-16T12:37:07;22.60;1.00
12833;DHT22;6483;51.310;4.462;2023-07-16T12:39:33;22.40;1.00
12833;DHT22;6483;51.310;4.462;2023-07-16T12:41:59;22.20;1.00
12833;DHT22;6483;51.310;4.462;2023-07-16T12:44:28;21.90;1.00
12833;DHT22;6483;51.310;4.462;2023-07-16T12:46:54;21.70;1.00
12833;DHT22;6483;51.310;4.462;2023-07-16T12:49:19;21.50;1.00
12833;DHT22;6483;51.310;4.462;2023-07-16T12:51:45;21.50;1.00
12833;DHT22;6483;51.310;4.462;2023-07-16T12:54:11;21.30;1.00
12833;DHT22;6483;51.310;4.462;2023-07-16T12:56:37;21.40;1.00
12833;DHT22;6483;51.310;4.462;2023-07-16T12:59:02;21.40;1.00
12833;DHT22;6483;51.310;4.462;2023-07-16T13:01:29;21.50;1.00
12833;DHT22;6483;51.310;4.462;2023-07-16T13:03:56;21.50;1.00
12833;DHT22;6483;51.310;4.462;2023-07-16T13:06:24;21.30;1.00
12833;DHT22;6483;51.310;4.462;2023-07-16T13:08:52;21.30;1.00
12833;DHT22;6483;51.310;4.462;2023-07-16T13:11:18;21.20;1.00
12833;DHT22;6483;51.310;4.462;2023-07-16T13:13:44;21.20;1.00
12833;DHT22;6483;51.310;4.462;2023-07-16T13:16:10;21.00;1.00
12833;DHT22;6483;51.310;4.462;2023-07-16T13:18:38;21.00;1.00
12833;DHT22;6483;51.310;4.462;2023-07-16T13:21:07;21.10;1.00
12833;DHT22;6483;51.310;4.462;2023-07-16T13:23:33;21.00;1.00
12833;DHT22;6483;51.310;4.462;2023-07-16T13:25:58;21.00;1.00
12833;DHT22;6483;51.310;4.462;2023-07-16T13:28:24;21.10;1.00
12833;DHT22;6483;51.310;4.462;2023-07-16T13:30:50;21.20;1.00
12833;DHT22;6483;51.310;4.462;2023-07-16T13:33:17;21.40;1.00
12833;DHT22;6483;51.310;4.462;2023-07-16T13:35:44;21.50;1.00
12833;DHT22;6483;51.310;4.462;2023-07-16T13:38:10;21.50;1.00
12833;DHT22;6483;51.310;4.462;2023-07-16T13:40:37;21.40;1.00
12833;DHT22;6483;51.310;4.462;2023-07-16T13:43:02;21.70;1.00
12833;DHT22;6483;51.310;4.462;2023-07-16T13:45:28;22.50;1.00
12833;DHT22;6483;51.310;4.462;2023-07-16T13:47:54;23.10;1.00
12833;DHT22;6483;51.310;4.462;2023-07-16T13:50:20;23.20;1.00
12833;DHT22;6483;51.310;4.462;2023-07-16T13:52:46;23.40;1.00
12833;DHT22;6483;51.310;4.462;2023-07-16T13:55:12;23.90;1.00
12833;DHT22;6483;51.310;4.462;2023-07-16T13:57:41;23.60;1.00
12833;DHT22;6483;51.310;4.462;2023-07-16T14:00:10;23.20;1.00
12833;DHT22;6483;51.310;4.462;2023-07-16T14:02:39;22.60;1.00
12833;DHT22;6483;51.310;4.462;2023-07-16T14:05:05;22.20;1.00
12833;DHT22;6483;51.310;4.462;2023-07-16T14:07:30;22.00;1.00
12833;DHT22;6483;51.310;4.462;2023-07-16T14:09:56;21.90;1.00
12833;DHT22;6483;51.310;4.462;2023-07-16T14:12:24;21.60;1.00
12833;DHT22;6483;51.310;4.462;2023-07-16T14:14:51;21.20;1.00
12833;DHT22;6483;51.310;4.462;2023-07-16T14:17:17;20.80;1.00
12833;DHT22;6483;51.310;4.462;2023-07-16T14:19:43;20.30;1.00
12833;DHT22;6483;51.310;4.462;2023-07-16T14:22:08;20.20;1.00
12833;DHT22;6483;51.310;4.462;2023-07-16T14:24:37;20.30;1.00
12833;DHT22;6483;51.310;4.462;2023-07-16T14:27:06;20.40;1.00
12833;DHT22;6483;51.310;4.462;2023-07-16T14:29:33;20.40;1.00
12833;DHT22;6483;51.310;4.462;2023-07-16T14:32:00;20.70;1.00
12833;DHT22;6483;51.310;4.462;2023-07-16T14:34:26;20.90;1.00
12833;DHT22;6483;51.310;4.462;2023-07-16T14:36:52;21.20;1.00
12833;DHT22;6483;51.310;4.462;2023-07-16T14:39:18;21.90;1.00
12833;DHT22;6483;51.310;4.462;2023-07-16T14:41:44;22.30;1.00
12833;DHT22;6483;51.310;4.462;2023-07-16T14:44:10;22.50;1.00
12833;DHT22;6483;51.310;4.462;2023-07-16T14:46:36;22.40;1.00
12833;DHT22;6483;51.310;4.462;2023-07-16T14:49:03;22.80;1.00
12833;DHT22;6483;51.310;4.462;2023-07-16T14:51:28;23.00;1.00
12833;DHT22;6483;51.310;4.462;2023-07-16T14:54:00;23.50;1.00
12833;DHT22;6483;51.310;4.462;2023-07-16T14:56:26;23.70;1.00
12833;DHT22;6483;51.310;4.462;2023-07-16T14:58:53;24.00;1.00
12833;DHT22;6483;51.310;4.462;2023-07-16T15:01:20;24.10;1.00
12833;DHT22;6483;51.310;4.462;2023-07-16T15:03:46;23.90;1.00
12833;DHT22;6483;51.310;4.462;2023-07-16T15:06:11;24.10;1.00
12833;DHT22;6483;51.310;4.462;2023-07-16T15:08:40;24.50;1.00
12833;DHT22;6483;51.310;4.462;2023-07-16T15:11:06;25.10;1.00
12833;DHT22;6483;51.310;4.462;2023-07-16T15:13:34;25.70;1.00
12833;DHT22;6483;51.310;4.462;2023-07-16T15:16:00;25.60;1.00
12833;DHT22;6483;51.310;4.462;2023-07-16T15:18:29;25.30;1.00
12833;DHT22;6483;51.310;4.462;2023-07-16T15:21:04;25.20;1.00
12833;DHT22;6483;51.310;4.462;2023-07-16T15:23:30;25.00;1.00
12833;DHT22;6483;51.310;4.462;2023-07-16T15:26:05;25.30;1.00
12833;DHT22;6483;51.310;4.462;2023-07-16T15:28:34;27.10;1.00
